sensor_id;sensor_type;location;lat;lon;timestamp;P1;durP1;ratioP1;P2;durP2;ratioP2
2710;SDS011;20721;47.402;8.550;2022-08-01T00:00:33;6.28;;;6.28;;
2710;SDS011;20721;47.402;8.550;2022-08-01T00:01:33;6.14;;;6.14;;
2710;SDS011;20721;47.402;8.550;2022-08-01T00:02:33;6.25;;;6.25;;
2710;SDS011;20721;47.402;8.550;2022-08-01T00:03:33;6.72;;;6.72;;
2710;SDS011;20721;47.402;8.550;2022-08-01T00:04:33;5.92;;;5.92;;
2710;SDS011;20721;47.402;8.550;2022-08-01T00:05:33;6.11;;;6.11;;
2710;SDS011;20721;47.402;8.550;2022-08-01T00:06:37;6.34;;;6.34;;
2710;SDS011;20721;47.402;8.550;2022-08-01T00:07:33;6.69;;;6.69;;
2710;SDS011;20721;47.402;8.550;2022-08-01T00:08:33;6.26;;;6.26;;
2710;SDS011;20721;47.402;8.550;2022-08-01T00:09:34;6.05;;;6.05;;
2710;SDS011;20721;47.402;8.550;2022-08-01T00:10:34;6.71;;;6.71;;
2710;SDS011;20721;47.402;8.550;2022-08-01T00:11:33;6.35;;;6.35;;
2710;SDS011;20721;47.402;8.550;2022-08-01T00:12:37;5.73;;;5.73;;
2710;SDS011;20721;47.402;8.550;2022-08-01T00:13:33;6.78;;;6.78;;
2710;SDS011;20721;47.402;8.550;2022-08-01T00:14:43;6.41;;;6.41;;
2710;SDS011;20721;47.402;8.550;2022-08-01T00:15:33;7.08;;;7.08;;
2710;SDS011;20721;47.402;8.550;2022-08-01T00:16:33;7.98;;;7.98;;
2710;SDS011;20721;47.402;8.550;2022-08-01T00:17:33;7.58;;;7.58;;
2710;SDS011;20721;47.402;8.550;2022-08-01T00:18:33;7.06;;;7.06;;
2710;SDS011;20721;47.402;8.550;2022-08-01T00:19:33;6.91;;;6.91;;
2710;SDS011;20721;47.402;8.550;2022-08-01T00:20:33;7.18;;;7.18;;
2710;SDS011;20721;47.402;8.550;2022-08-01T00:21:33;6.98;;;6.98;;
2710;SDS011;20721;47.402;8.550;2022-08-01T00:22:33;7.38;;;7.38;;
2710;SDS011;20721;47.402;8.550;2022-08-01T00:23:33;7.25;;;7.25;;
2710;SDS011;20721;47.402;8.550;2022-08-01T00:24:33;6.34;;;6.34;;
2710;SDS011;20721;47.402;8.550;2022-08-01T00:25:43;6.68;;;6.68;;
2710;SDS011;20721;47.402;8.550;2022-08-01T00:26:33;5.97;;;5.97;;
2710;SDS011;20721;47.402;8.550;2022-08-01T00:27:33;6.23;;;6.23;;
2710;SDS011;20721;47.402;8.550;2022-08-01T00:28:33;6.62;;;6.62;;
2710;SDS011;20721;47.402;8.550;2022-08-01T00:29:43;6.83;;;6.83;;
2710;SDS011;20721;47.402;8.550;2022-08-01T00:30:33;7.02;;;7.02;;
2710;SDS011;20721;47.402;8.550;2022-08-01T00:31:33;7.30;;;7.30;;
2710;SDS011;20721;47.402;8.550;2022-08-01T00:34:33;7.25;;;7.25;;
2710;SDS011;20721;47.402;8.550;2022-08-01T00:35:33;6.97;;;6.97;;
2710;SDS011;20721;47.402;8.550;2022-08-01T00:36:33;7.65;;;7.65;;
2710;SDS011;20721;47.402;8.550;2022-08-01T00:39:33;6.94;;;6.94;;
2710;SDS011;20721;47.402;8.550;2022-08-01T00:40:33;7.36;;;7.36;;
2710;SDS011;20721;47.402;8.550;2022-08-01T00:41:33;5.91;;;5.91;;
2710;SDS011;20721;47.402;8.550;2022-08-01T00:42:33;6.94;;;6.94;;
2710;SDS011;20721;47.402;8.550;2022-08-01T00:43:37;6.10;;;6.10;;
2710;SDS011;20721;47.402;8.550;2022-08-01T00:45:33;6.18;;;6.18;;
2710;SDS011;20721;47.402;8.550;2022-08-01T00:46:33;5.80;;;5.80;;
2710;SDS011;20721;47.402;8.550;2022-08-01T00:48:33;6.45;;;6.45;;
2710;SDS011;20721;47.402;8.550;2022-08-01T00:49:37;6.33;;;6.33;;
2710;SDS011;20721;47.402;8.550;2022-08-01T00:50:35;6.42;;;6.42;;
2710;SDS011;20721;47.402;8.550;2022-08-01T00:51:34;6.08;;;6.08;;
2710;SDS011;20721;47.402;8.550;2022-08-01T00:52:33;6.32;;;6.32;;
2710;SDS011;20721;47.402;8.550;2022-08-01T00:53:36;9.44;;;9.44;;
2710;SDS011;20721;47.402;8.550;2022-08-01T00:55:33;18.32;;;18.32;;
2710;SDS011;20721;47.402;8.550;2022-08-01T00:56:35;17.52;;;17.52;;
2710;SDS011;20721;47.402;8.550;2022-08-01T00:57:43;27.21;;;27.21;;
2710;SDS011;20721;47.402;8.550;2022-08-01T00:58:34;30.44;;;30.43;;
2710;SDS011;20721;47.402;8.550;2022-08-01T00:59:33;17.96;;;17.96;;
2710;SDS011;20721;47.402;8.550;2022-08-01T01:00:37;12.96;;;12.96;;
2710;SDS011;20721;47.402;8.550;2022-08-01T01:01:33;10.76;;;10.76;;
2710;SDS011;20721;47.402;8.550;2022-08-01T01:03:43;7.94;;;7.94;;
2710;SDS011;20721;47.402;8.550;2022-08-01T01:04:33;8.02;;;8.02;;
2710;SDS011;20721;47.402;8.550;2022-08-01T01:05:34;8.35;;;8.35;;
2710;SDS011;20721;47.402;8.550;2022-08-01T01:08:39;7.46;;;7.46;;
2710;SDS011;20721;47.402;8.550;2022-08-01T01:09:44;7.38;;;7.38;;
2710;SDS011;20721;47.402;8.550;2022-08-01T01:11:44;7.74;;;7.74;;
2710;SDS011;20721;47.402;8.550;2022-08-01T01:12:44;7.28;;;7.28;;
2710;SDS011;20721;47.402;8.550;2022-08-01T01:13:43;7.25;;;7.25;;
2710;SDS011;20721;47.402;8.550;2022-08-01T01:14:43;7.01;;;7.01;;
2710;SDS011;20721;47.402;8.550;2022-08-01T01:15:43;7.37;;;7.37;;
2710;SDS011;20721;47.402;8.550;2022-08-01T01:16:34;7.86;;;7.86;;
2710;SDS011;20721;47.402;8.550;2022-08-01T01:18:02;8.03;;;8.03;;
2710;SDS011;20721;47.402;8.550;2022-08-01T01:18:51;7.86;;;7.86;;
2710;SDS011;20721;47.402;8.550;2022-08-01T01:19:39;7.18;;;7.18;;
2710;SDS011;20721;47.402;8.550;2022-08-01T01:20:42;7.38;;;7.38;;
2710;SDS011;20721;47.402;8.550;2022-08-01T01:24:48;7.94;;;7.94;;
2710;SDS011;20721;47.402;8.550;2022-08-01T01:29:42;8.11;;;8.11;;
2710;SDS011;20721;47.402;8.550;2022-08-01T01:29:44;7.71;;;7.71;;
2710;SDS011;20721;47.402;8.550;2022-08-01T01:32:48;7.82;;;7.82;;
2710;SDS011;20721;47.402;8.550;2022-08-01T01:33:35;8.04;;;8.04;;
2710;SDS011;20721;47.402;8.550;2022-08-01T01:34:38;7.56;;;7.56;;
2710;SDS011;20721;47.402;8.550;2022-08-01T01:35:35;6.70;;;6.70;;
2710;SDS011;20721;47.402;8.550;2022-08-01T01:36:35;7.27;;;7.27;;
2710;SDS011;20721;47.402;8.550;2022-08-01T01:37:35;8.14;;;8.14;;
2710;SDS011;20721;47.402;8.550;2022-08-01T01:38:37;7.60;;;7.60;;
2710;SDS011;20721;47.402;8.550;2022-08-01T01:39:34;8.42;;;8.42;;
2710;SDS011;20721;47.402;8.550;2022-08-01T01:40:34;7.57;;;7.57;;
2710;SDS011;20721;47.402;8.550;2022-08-01T01:41:34;7.21;;;7.21;;
2710;SDS011;20721;47.402;8.550;2022-08-01T01:42:35;6.69;;;6.69;;
2710;SDS011;20721;47.402;8.550;2022-08-01T01:43:45;6.48;;;6.48;;
2710;SDS011;20721;47.402;8.550;2022-08-01T01:44:35;5.68;;;5.68;;
2710;SDS011;20721;47.402;8.550;2022-08-01T01:45:34;5.63;;;5.63;;
2710;SDS011;20721;47.402;8.550;2022-08-01T01:46:35;5.80;;;5.80;;
2710;SDS011;20721;47.402;8.550;2022-08-01T01:47:36;5.55;;;5.55;;
2710;SDS011;20721;47.402;8.550;2022-08-01T01:48:34;5.64;;;5.64;;
2710;SDS011;20721;47.402;8.550;2022-08-01T01:49:35;5.54;;;5.54;;
2710;SDS011;20721;47.402;8.550;2022-08-01T01:50:35;5.69;;;5.69;;
2710;SDS011;20721;47.402;8.550;2022-08-01T01:51:35;6.56;;;6.56;;
2710;SDS011;20721;47.402;8.550;2022-08-01T01:53:34;5.32;;;5.32;;
2710;SDS011;20721;47.402;8.550;2022-08-01T01:54:39;5.39;;;5.39;;
2710;SDS011;20721;47.402;8.550;2022-08-01T01:55:33;5.44;;;5.44;;
2710;SDS011;20721;47.402;8.550;2022-08-01T01:56:34;5.29;;;5.29;;
2710;SDS011;20721;47.402;8.550;2022-08-01T01:57:40;5.33;;;5.33;;
2710;SDS011;20721;47.402;8.550;2022-08-01T01:58:34;5.72;;;5.72;;
2710;SDS011;20721;47.402;8.550;2022-08-01T01:59:38;6.19;;;6.19;;
2710;SDS011;20721;47.402;8.550;2022-08-01T02:00:34;5.08;;;5.08;;
2710;SDS011;20721;47.402;8.550;2022-08-01T02:01:44;5.40;;;5.40;;
2710;SDS011;20721;47.402;8.550;2022-08-01T02:02:35;5.93;;;5.93;;
2710;SDS011;20721;47.402;8.550;2022-08-01T02:03:37;5.97;;;5.97;;
2710;SDS011;20721;47.402;8.550;2022-08-01T02:06:35;5.82;;;5.82;;
2710;SDS011;20721;47.402;8.550;2022-08-01T02:07:34;6.43;;;6.43;;
2710;SDS011;20721;47.402;8.550;2022-08-01T02:08:34;5.99;;;5.99;;
2710;SDS011;20721;47.402;8.550;2022-08-01T02:09:36;6.01;;;6.01;;
2710;SDS011;20721;47.402;8.550;2022-08-01T02:10:40;6.40;;;6.40;;
2710;SDS011;20721;47.402;8.550;2022-08-01T02:11:33;6.25;;;6.25;;
2710;SDS011;20721;47.402;8.550;2022-08-01T02:12:35;5.85;;;5.85;;
2710;SDS011;20721;47.402;8.550;2022-08-01T02:14:34;6.21;;;6.21;;
2710;SDS011;20721;47.402;8.550;2022-08-01T02:15:35;6.19;;;6.19;;
2710;SDS011;20721;47.402;8.550;2022-08-01T02:17:36;6.15;;;6.15;;
2710;SDS011;20721;47.402;8.550;2022-08-01T02:18:34;5.95;;;5.95;;
2710;SDS011;20721;47.402;8.550;2022-08-01T02:19:33;6.05;;;6.05;;
2710;SDS011;20721;47.402;8.550;2022-08-01T02:20:34;6.08;;;6.08;;
2710;SDS011;20721;47.402;8.550;2022-08-01T02:21:40;5.66;;;5.66;;
2710;SDS011;20721;47.402;8.550;2022-08-01T02:24:51;6.42;;;6.42;;
2710;SDS011;20721;47.402;8.550;2022-08-01T02:25:39;6.07;;;6.07;;
2710;SDS011;20721;47.402;8.550;2022-08-01T02:26:34;5.61;;;5.61;;
2710;SDS011;20721;47.402;8.550;2022-08-01T02:27:38;5.53;;;5.53;;
2710;SDS011;20721;47.402;8.550;2022-08-01T02:28:42;6.27;;;6.27;;
2710;SDS011;20721;47.402;8.550;2022-08-01T02:29:39;5.54;;;5.54;;
2710;SDS011;20721;47.402;8.550;2022-08-01T02:31:35;5.89;;;5.89;;
2710;SDS011;20721;47.402;8.550;2022-08-01T02:34:39;6.48;;;6.48;;
2710;SDS011;20721;47.402;8.550;2022-08-01T02:35:37;6.17;;;6.17;;
2710;SDS011;20721;47.402;8.550;2022-08-01T02:37:36;6.09;;;6.09;;
2710;SDS011;20721;47.402;8.550;2022-08-01T02:38:37;5.53;;;5.53;;
2710;SDS011;20721;47.402;8.550;2022-08-01T02:39:36;5.68;;;5.68;;
2710;SDS011;20721;47.402;8.550;2022-08-01T02:40:38;6.22;;;6.22;;
2710;SDS011;20721;47.402;8.550;2022-08-01T02:41:38;6.91;;;6.91;;
2710;SDS011;20721;47.402;8.550;2022-08-01T02:42:36;5.86;;;5.86;;
2710;SDS011;20721;47.402;8.550;2022-08-01T02:43:36;5.92;;;5.92;;
2710;SDS011;20721;47.402;8.550;2022-08-01T02:44:37;6.03;;;6.03;;
2710;SDS011;20721;47.402;8.550;2022-08-01T02:45:35;6.03;;;6.03;;
2710;SDS011;20721;47.402;8.550;2022-08-01T02:46:38;6.28;;;6.28;;
2710;SDS011;20721;47.402;8.550;2022-08-01T02:48:35;6.29;;;6.29;;
2710;SDS011;20721;47.402;8.550;2022-08-01T02:49:36;6.22;;;6.22;;
2710;SDS011;20721;47.402;8.550;2022-08-01T02:50:35;5.87;;;5.87;;
2710;SDS011;20721;47.402;8.550;2022-08-01T02:51:34;6.19;;;6.19;;
2710;SDS011;20721;47.402;8.550;2022-08-01T02:52:35;6.30;;;6.30;;
2710;SDS011;20721;47.402;8.550;2022-08-01T02:53:48;5.63;;;5.63;;
2710;SDS011;20721;47.402;8.550;2022-08-01T02:54:35;6.11;;;6.11;;
2710;SDS011;20721;47.402;8.550;2022-08-01T02:55:34;6.01;;;6.01;;
2710;SDS011;20721;47.402;8.550;2022-08-01T02:56:35;6.02;;;6.02;;
2710;SDS011;20721;47.402;8.550;2022-08-01T02:57:40;6.33;;;6.33;;
2710;SDS011;20721;47.402;8.550;2022-08-01T02:58:40;6.53;;;6.53;;
2710;SDS011;20721;47.402;8.550;2022-08-01T02:59:37;6.46;;;6.46;;
2710;SDS011;20721;47.402;8.550;2022-08-01T03:00:36;6.60;;;6.60;;
2710;SDS011;20721;47.402;8.550;2022-08-01T03:01:37;6.86;;;6.86;;
2710;SDS011;20721;47.402;8.550;2022-08-01T03:02:34;5.74;;;5.74;;
2710;SDS011;20721;47.402;8.550;2022-08-01T03:03:34;7.49;;;7.49;;
2710;SDS011;20721;47.402;8.550;2022-08-01T03:04:35;6.54;;;6.54;;
2710;SDS011;20721;47.402;8.550;2022-08-01T03:05:35;6.54;;;6.54;;
2710;SDS011;20721;47.402;8.550;2022-08-01T03:06:34;6.47;;;6.47;;
2710;SDS011;20721;47.402;8.550;2022-08-01T03:07:34;7.59;;;7.59;;
2710;SDS011;20721;47.402;8.550;2022-08-01T03:08:35;7.07;;;7.07;;
2710;SDS011;20721;47.402;8.550;2022-08-01T03:09:36;6.96;;;6.96;;
2710;SDS011;20721;47.402;8.550;2022-08-01T03:10:36;7.20;;;7.20;;
2710;SDS011;20721;47.402;8.550;2022-08-01T03:11:39;6.54;;;6.54;;
2710;SDS011;20721;47.402;8.550;2022-08-01T03:12:37;6.75;;;6.75;;
2710;SDS011;20721;47.402;8.550;2022-08-01T03:13:35;7.23;;;7.23;;
2710;SDS011;20721;47.402;8.550;2022-08-01T03:14:37;6.31;;;6.31;;
2710;SDS011;20721;47.402;8.550;2022-08-01T03:15:35;6.91;;;6.91;;
2710;SDS011;20721;47.402;8.550;2022-08-01T03:16:35;6.44;;;6.44;;
2710;SDS011;20721;47.402;8.550;2022-08-01T03:17:38;7.34;;;7.34;;
2710;SDS011;20721;47.402;8.550;2022-08-01T03:18:34;7.36;;;7.36;;
2710;SDS011;20721;47.402;8.550;2022-08-01T03:19:35;7.65;;;7.65;;
2710;SDS011;20721;47.402;8.550;2022-08-01T03:20:35;6.69;;;6.69;;
2710;SDS011;20721;47.402;8.550;2022-08-01T03:21:35;7.26;;;7.26;;
2710;SDS011;20721;47.402;8.550;2022-08-01T03:22:35;6.27;;;6.27;;
2710;SDS011;20721;47.402;8.550;2022-08-01T03:23:47;7.01;;;7.01;;
2710;SDS011;20721;47.402;8.550;2022-08-01T03:25:35;7.24;;;7.24;;
2710;SDS011;20721;47.402;8.550;2022-08-01T03:26:36;6.45;;;6.45;;
2710;SDS011;20721;47.402;8.550;2022-08-01T03:27:35;6.13;;;6.13;;
2710;SDS011;20721;47.402;8.550;2022-08-01T03:28:40;6.85;;;6.85;;
2710;SDS011;20721;47.402;8.550;2022-08-01T03:29:35;7.15;;;7.15;;
2710;SDS011;20721;47.402;8.550;2022-08-01T03:30:36;6.81;;;6.81;;
2710;SDS011;20721;47.402;8.550;2022-08-01T03:31:35;7.51;;;7.51;;
2710;SDS011;20721;47.402;8.550;2022-08-01T03:32:34;6.60;;;6.60;;
2710;SDS011;20721;47.402;8.550;2022-08-01T03:33:33;7.44;;;7.44;;
2710;SDS011;20721;47.402;8.550;2022-08-01T03:34:34;6.68;;;6.68;;
2710;SDS011;20721;47.402;8.550;2022-08-01T03:35:39;6.79;;;6.79;;
2710;SDS011;20721;47.402;8.550;2022-08-01T03:36:38;6.53;;;6.53;;
2710;SDS011;20721;47.402;8.550;2022-08-01T03:37:38;6.89;;;6.89;;
2710;SDS011;20721;47.402;8.550;2022-08-01T03:38:35;6.26;;;6.26;;
2710;SDS011;20721;47.402;8.550;2022-08-01T03:42:39;6.35;;;6.35;;
2710;SDS011;20721;47.402;8.550;2022-08-01T03:43:48;6.59;;;6.59;;
2710;SDS011;20721;47.402;8.550;2022-08-01T03:45:38;6.74;;;6.74;;
2710;SDS011;20721;47.402;8.550;2022-08-01T03:47:36;7.00;;;7.00;;
2710;SDS011;20721;47.402;8.550;2022-08-01T03:48:40;6.68;;;6.68;;
2710;SDS011;20721;47.402;8.550;2022-08-01T03:49:40;6.28;;;6.28;;
2710;SDS011;20721;47.402;8.550;2022-08-01T03:50:36;6.93;;;6.93;;
2710;SDS011;20721;47.402;8.550;2022-08-01T03:51:34;7.07;;;7.07;;
2710;SDS011;20721;47.402;8.550;2022-08-01T03:52:38;7.09;;;7.09;;
2710;SDS011;20721;47.402;8.550;2022-08-01T03:53:35;6.91;;;6.91;;
2710;SDS011;20721;47.402;8.550;2022-08-01T03:54:40;6.62;;;6.62;;
2710;SDS011;20721;47.402;8.550;2022-08-01T03:55:35;7.06;;;7.06;;
2710;SDS011;20721;47.402;8.550;2022-08-01T03:57:44;7.39;;;7.39;;
2710;SDS011;20721;47.402;8.550;2022-08-01T03:58:35;6.91;;;6.91;;
2710;SDS011;20721;47.402;8.550;2022-08-01T03:59:35;7.22;;;7.22;;
2710;SDS011;20721;47.402;8.550;2022-08-01T04:00:35;6.68;;;6.68;;
2710;SDS011;20721;47.402;8.550;2022-08-01T04:01:34;8.09;;;8.09;;
2710;SDS011;20721;47.402;8.550;2022-08-01T04:02:35;6.78;;;6.78;;
2710;SDS011;20721;47.402;8.550;2022-08-01T04:03:34;7.24;;;7.24;;
2710;SDS011;20721;47.402;8.550;2022-08-01T04:04:34;7.21;;;7.21;;
2710;SDS011;20721;47.402;8.550;2022-08-01T04:06:36;6.90;;;6.90;;
2710;SDS011;20721;47.402;8.550;2022-08-01T04:07:35;6.86;;;6.86;;
2710;SDS011;20721;47.402;8.550;2022-08-01T04:08:45;7.42;;;7.42;;
2710;SDS011;20721;47.402;8.550;2022-08-01T04:09:34;7.69;;;7.69;;
2710;SDS011;20721;47.402;8.550;2022-08-01T04:10:34;7.36;;;7.36;;
2710;SDS011;20721;47.402;8.550;2022-08-01T04:11:34;7.14;;;7.14;;
2710;SDS011;20721;47.402;8.550;2022-08-01T04:12:34;6.88;;;6.88;;
2710;SDS011;20721;47.402;8.550;2022-08-01T04:15:34;6.58;;;6.58;;
2710;SDS011;20721;47.402;8.550;2022-08-01T04:16:34;7.20;;;7.20;;
2710;SDS011;20721;47.402;8.550;2022-08-01T04:17:34;6.49;;;6.49;;
2710;SDS011;20721;47.402;8.550;2022-08-01T04:18:34;7.09;;;7.09;;
2710;SDS011;20721;47.402;8.550;2022-08-01T04:19:34;7.59;;;7.59;;
2710;SDS011;20721;47.402;8.550;2022-08-01T04:20:35;7.24;;;7.24;;
2710;SDS011;20721;47.402;8.550;2022-08-01T04:21:36;8.12;;;8.12;;
2710;SDS011;20721;47.402;8.550;2022-08-01T04:22:34;7.18;;;7.18;;
2710;SDS011;20721;47.402;8.550;2022-08-01T04:23:35;7.55;;;7.55;;
2710;SDS011;20721;47.402;8.550;2022-08-01T04:24:35;7.18;;;7.18;;
2710;SDS011;20721;47.402;8.550;2022-08-01T04:25:42;7.22;;;7.22;;
2710;SDS011;20721;47.402;8.550;2022-08-01T04:26:34;7.23;;;7.23;;
2710;SDS011;20721;47.402;8.550;2022-08-01T04:27:46;8.19;;;8.19;;
2710;SDS011;20721;47.402;8.550;2022-08-01T04:28:34;8.78;;;8.78;;
2710;SDS011;20721;47.402;8.550;2022-08-01T04:29:35;8.96;;;8.96;;
2710;SDS011;20721;47.402;8.550;2022-08-01T04:30:37;9.57;;;9.57;;
2710;SDS011;20721;47.402;8.550;2022-08-01T04:31:38;9.24;;;9.24;;
2710;SDS011;20721;47.402;8.550;2022-08-01T04:33:38;8.04;;;8.04;;
2710;SDS011;20721;47.402;8.550;2022-08-01T04:34:35;7.78;;;7.78;;
2710;SDS011;20721;47.402;8.550;2022-08-01T04:35:46;7.16;;;7.16;;
2710;SDS011;20721;47.402;8.550;2022-08-01T04:36:35;7.30;;;7.30;;
2710;SDS011;20721;47.402;8.550;2022-08-01T04:37:35;7.75;;;7.75;;
2710;SDS011;20721;47.402;8.550;2022-08-01T04:38:38;9.51;;;9.51;;
2710;SDS011;20721;47.402;8.550;2022-08-01T04:39:36;8.61;;;8.61;;
2710;SDS011;20721;47.402;8.550;2022-08-01T04:40:35;7.58;;;7.58;;
2710;SDS011;20721;47.402;8.550;2022-08-01T04:41:34;8.43;;;8.43;;
2710;SDS011;20721;47.402;8.550;2022-08-01T04:42:44;7.37;;;7.37;;
2710;SDS011;20721;47.402;8.550;2022-08-01T04:43:34;7.70;;;7.70;;
2710;SDS011;20721;47.402;8.550;2022-08-01T04:44:34;7.99;;;7.99;;
2710;SDS011;20721;47.402;8.550;2022-08-01T04:45:34;7.88;;;7.88;;
2710;SDS011;20721;47.402;8.550;2022-08-01T04:46:34;7.48;;;7.48;;
2710;SDS011;20721;47.402;8.550;2022-08-01T04:47:36;7.44;;;7.44;;
2710;SDS011;20721;47.402;8.550;2022-08-01T04:48:36;7.73;;;7.73;;
2710;SDS011;20721;47.402;8.550;2022-08-01T04:50:34;7.95;;;7.95;;
2710;SDS011;20721;47.402;8.550;2022-08-01T04:52:42;7.78;;;7.78;;
2710;SDS011;20721;47.402;8.550;2022-08-01T04:53:36;6.85;;;6.85;;
2710;SDS011;20721;47.402;8.550;2022-08-01T04:54:35;7.53;;;7.53;;
2710;SDS011;20721;47.402;8.550;2022-08-01T04:56:34;7.34;;;7.34;;
2710;SDS011;20721;47.402;8.550;2022-08-01T04:58:34;7.53;;;7.53;;
2710;SDS011;20721;47.402;8.550;2022-08-01T05:00:34;7.91;;;7.91;;
2710;SDS011;20721;47.402;8.550;2022-08-01T05:01:34;7.73;;;7.73;;
2710;SDS011;20721;47.402;8.550;2022-08-01T05:02:39;7.56;;;7.56;;
2710;SDS011;20721;47.402;8.550;2022-08-01T05:03:34;7.20;;;7.20;;
2710;SDS011;20721;47.402;8.550;2022-08-01T05:04:34;7.21;;;7.21;;
2710;SDS011;20721;47.402;8.550;2022-08-01T05:05:36;7.42;;;7.42;;
2710;SDS011;20721;47.402;8.550;2022-08-01T05:06:34;7.73;;;7.73;;
2710;SDS011;20721;47.402;8.550;2022-08-01T05:07:34;7.95;;;7.95;;
2710;SDS011;20721;47.402;8.550;2022-08-01T05:09:41;7.68;;;7.68;;
2710;SDS011;20721;47.402;8.550;2022-08-01T05:10:34;6.90;;;6.90;;
2710;SDS011;20721;47.402;8.550;2022-08-01T05:11:34;7.59;;;7.59;;
2710;SDS011;20721;47.402;8.550;2022-08-01T05:12:34;7.48;;;7.48;;
2710;SDS011;20721;47.402;8.550;2022-08-01T05:13:34;7.93;;;7.93;;
2710;SDS011;20721;47.402;8.550;2022-08-01T05:14:35;7.92;;;7.92;;
2710;SDS011;20721;47.402;8.550;2022-08-01T05:15:34;7.54;;;7.54;;
2710;SDS011;20721;47.402;8.550;2022-08-01T05:16:34;6.90;;;6.90;;
2710;SDS011;20721;47.402;8.550;2022-08-01T05:17:34;7.48;;;7.48;;
2710;SDS011;20721;47.402;8.550;2022-08-01T05:18:38;7.41;;;7.41;;
2710;SDS011;20721;47.402;8.550;2022-08-01T05:19:34;7.92;;;7.92;;
2710;SDS011;20721;47.402;8.550;2022-08-01T05:20:34;7.96;;;7.96;;
2710;SDS011;20721;47.402;8.550;2022-08-01T05:21:34;7.57;;;7.57;;
2710;SDS011;20721;47.402;8.550;2022-08-01T05:22:35;7.46;;;7.46;;
2710;SDS011;20721;47.402;8.550;2022-08-01T05:23:44;7.51;;;7.51;;
2710;SDS011;20721;47.402;8.550;2022-08-01T05:24:34;8.04;;;8.04;;
2710;SDS011;20721;47.402;8.550;2022-08-01T05:25:44;7.26;;;7.26;;
2710;SDS011;20721;47.402;8.550;2022-08-01T05:26:34;7.22;;;7.22;;
2710;SDS011;20721;47.402;8.550;2022-08-01T05:27:37;6.84;;;6.84;;
2710;SDS011;20721;47.402;8.550;2022-08-01T05:28:34;7.12;;;7.12;;
2710;SDS011;20721;47.402;8.550;2022-08-01T05:29:34;7.07;;;7.07;;
2710;SDS011;20721;47.402;8.550;2022-08-01T05:30:34;7.87;;;7.87;;
2710;SDS011;20721;47.402;8.550;2022-08-01T05:31:34;7.61;;;7.61;;
2710;SDS011;20721;47.402;8.550;2022-08-01T05:32:34;7.32;;;7.32;;
2710;SDS011;20721;47.402;8.550;2022-08-01T05:33:34;7.39;;;7.39;;
2710;SDS011;20721;47.402;8.550;2022-08-01T05:34:34;7.70;;;7.70;;
2710;SDS011;20721;47.402;8.550;2022-08-01T05:35:44;7.07;;;7.07;;
2710;SDS011;20721;47.402;8.550;2022-08-01T05:36:34;7.35;;;7.35;;
2710;SDS011;20721;47.402;8.550;2022-08-01T05:37:34;8.18;;;8.18;;
2710;SDS011;20721;47.402;8.550;2022-08-01T05:38:34;7.05;;;7.05;;
2710;SDS011;20721;47.402;8.550;2022-08-01T05:39:39;6.49;;;6.49;;
2710;SDS011;20721;47.402;8.550;2022-08-01T05:40:35;7.27;;;7.27;;
2710;SDS011;20721;47.402;8.550;2022-08-01T05:41:35;7.11;;;7.11;;
2710;SDS011;20721;47.402;8.550;2022-08-01T05:42:34;6.83;;;6.83;;
2710;SDS011;20721;47.402;8.550;2022-08-01T05:43:39;7.52;;;7.52;;
2710;SDS011;20721;47.402;8.550;2022-08-01T05:44:35;7.10;;;7.10;;
2710;SDS011;20721;47.402;8.550;2022-08-01T05:45:38;7.11;;;7.11;;
2710;SDS011;20721;47.402;8.550;2022-08-01T05:46:37;7.56;;;7.56;;
2710;SDS011;20721;47.402;8.550;2022-08-01T05:47:34;7.55;;;7.55;;
2710;SDS011;20721;47.402;8.550;2022-08-01T05:48:34;7.83;;;7.83;;
2710;SDS011;20721;47.402;8.550;2022-08-01T05:49:34;7.66;;;7.66;;
2710;SDS011;20721;47.402;8.550;2022-08-01T05:50:34;8.61;;;8.61;;
2710;SDS011;20721;47.402;8.550;2022-08-01T05:51:34;7.56;;;7.56;;
2710;SDS011;20721;47.402;8.550;2022-08-01T05:52:34;7.17;;;7.17;;
2710;SDS011;20721;47.402;8.550;2022-08-01T05:53:34;7.65;;;7.65;;
2710;SDS011;20721;47.402;8.550;2022-08-01T05:54:34;6.95;;;6.95;;
2710;SDS011;20721;47.402;8.550;2022-08-01T05:55:34;7.25;;;7.25;;
2710;SDS011;20721;47.402;8.550;2022-08-01T05:56:34;7.02;;;7.02;;
2710;SDS011;20721;47.402;8.550;2022-08-01T05:57:34;7.09;;;7.09;;
2710;SDS011;20721;47.402;8.550;2022-08-01T05:58:34;6.83;;;6.83;;
2710;SDS011;20721;47.402;8.550;2022-08-01T06:00:34;8.70;;;8.70;;
2710;SDS011;20721;47.402;8.550;2022-08-01T06:01:34;7.48;;;7.48;;
2710;SDS011;20721;47.402;8.550;2022-08-01T06:02:34;7.64;;;7.64;;
2710;SDS011;20721;47.402;8.550;2022-08-01T06:03:34;7.18;;;7.18;;
2710;SDS011;20721;47.402;8.550;2022-08-01T06:04:34;7.24;;;7.24;;
2710;SDS011;20721;47.402;8.550;2022-08-01T06:05:34;7.78;;;7.78;;
2710;SDS011;20721;47.402;8.550;2022-08-01T06:06:35;8.41;;;8.41;;
2710;SDS011;20721;47.402;8.550;2022-08-01T06:07:34;7.13;;;7.13;;
2710;SDS011;20721;47.402;8.550;2022-08-01T06:08:34;7.14;;;7.14;;
2710;SDS011;20721;47.402;8.550;2022-08-01T06:09:34;7.51;;;7.51;;
2710;SDS011;20721;47.402;8.550;2022-08-01T06:10:34;7.61;;;7.61;;
2710;SDS011;20721;47.402;8.550;2022-08-01T06:11:34;7.06;;;7.06;;
2710;SDS011;20721;47.402;8.550;2022-08-01T06:12:34;7.39;;;7.39;;
2710;SDS011;20721;47.402;8.550;2022-08-01T06:13:34;6.79;;;6.79;;
2710;SDS011;20721;47.402;8.550;2022-08-01T06:14:34;7.85;;;7.85;;
2710;SDS011;20721;47.402;8.550;2022-08-01T06:15:34;7.23;;;7.23;;
2710;SDS011;20721;47.402;8.550;2022-08-01T06:16:39;7.33;;;7.33;;
2710;SDS011;20721;47.402;8.550;2022-08-01T06:17:34;7.43;;;7.43;;
2710;SDS011;20721;47.402;8.550;2022-08-01T06:18:34;7.51;;;7.51;;
2710;SDS011;20721;47.402;8.550;2022-08-01T06:19:34;6.99;;;6.99;;
2710;SDS011;20721;47.402;8.550;2022-08-01T06:20:34;7.44;;;7.44;;
2710;SDS011;20721;47.402;8.550;2022-08-01T06:21:34;7.12;;;7.12;;
2710;SDS011;20721;47.402;8.550;2022-08-01T06:22:39;7.28;;;7.28;;
2710;SDS011;20721;47.402;8.550;2022-08-01T06:23:42;8.58;;;8.58;;
2710;SDS011;20721;47.402;8.550;2022-08-01T06:24:34;7.15;;;7.15;;
2710;SDS011;20721;47.402;8.550;2022-08-01T06:25:34;7.75;;;7.75;;
2710;SDS011;20721;47.402;8.550;2022-08-01T06:26:34;6.97;;;6.97;;
2710;SDS011;20721;47.402;8.550;2022-08-01T06:27:36;7.16;;;7.16;;
2710;SDS011;20721;47.402;8.550;2022-08-01T06:28:34;7.05;;;7.05;;
2710;SDS011;20721;47.402;8.550;2022-08-01T06:29:34;7.85;;;7.85;;
2710;SDS011;20721;47.402;8.550;2022-08-01T06:30:34;7.77;;;7.77;;
2710;SDS011;20721;47.402;8.550;2022-08-01T06:31:34;7.35;;;7.35;;
2710;SDS011;20721;47.402;8.550;2022-08-01T06:32:37;6.77;;;6.77;;
2710;SDS011;20721;47.402;8.550;2022-08-01T06:33:34;7.28;;;7.28;;
2710;SDS011;20721;47.402;8.550;2022-08-01T06:34:34;6.93;;;6.93;;
2710;SDS011;20721;47.402;8.550;2022-08-01T06:35:34;7.65;;;7.65;;
2710;SDS011;20721;47.402;8.550;2022-08-01T06:36:35;7.69;;;7.69;;
2710;SDS011;20721;47.402;8.550;2022-08-01T06:37:38;7.39;;;7.39;;
2710;SDS011;20721;47.402;8.550;2022-08-01T06:38:34;7.82;;;7.82;;
2710;SDS011;20721;47.402;8.550;2022-08-01T06:40:34;6.74;;;6.74;;
2710;SDS011;20721;47.402;8.550;2022-08-01T06:41:34;7.01;;;7.01;;
2710;SDS011;20721;47.402;8.550;2022-08-01T06:42:35;7.26;;;7.26;;
2710;SDS011;20721;47.402;8.550;2022-08-01T06:43:34;6.88;;;6.88;;
2710;SDS011;20721;47.402;8.550;2022-08-01T06:44:34;6.96;;;6.96;;
2710;SDS011;20721;47.402;8.550;2022-08-01T06:45:35;6.36;;;6.36;;
2710;SDS011;20721;47.402;8.550;2022-08-01T06:46:40;6.32;;;6.32;;
2710;SDS011;20721;47.402;8.550;2022-08-01T06:47:34;6.27;;;6.27;;
2710;SDS011;20721;47.402;8.550;2022-08-01T06:48:34;6.64;;;6.64;;
2710;SDS011;20721;47.402;8.550;2022-08-01T06:49:34;6.40;;;6.40;;
2710;SDS011;20721;47.402;8.550;2022-08-01T06:50:34;6.05;;;6.05;;
2710;SDS011;20721;47.402;8.550;2022-08-01T06:51:34;6.35;;;6.35;;
2710;SDS011;20721;47.402;8.550;2022-08-01T06:52:34;6.77;;;6.77;;
2710;SDS011;20721;47.402;8.550;2022-08-01T06:53:46;6.36;;;6.36;;
2710;SDS011;20721;47.402;8.550;2022-08-01T06:54:35;6.57;;;6.57;;
2710;SDS011;20721;47.402;8.550;2022-08-01T06:55:34;5.37;;;5.37;;
2710;SDS011;20721;47.402;8.550;2022-08-01T06:57:34;6.04;;;6.04;;